Time;durP1;ratioP1;P1;durP2;ratioP2;P2;SDS_P1;SDS_P2;PMS_P1;PMS_P2;Temp;Humidity;BMP_temperature;BMP_pressure;BME280_temperature;BME280_humidity;BME280_pressure;Samples;Min_cycle;Max_cycle;Signal;HPM_P1;HPM_P2
2023/06/21 00:00:37;;;;;;;;;;;21.70;59.40;;;18.00;100.00;95402.16;4985586;28;20020;-47
2023/06/21 00:03:06;;;;;;;;;;;21.70;59.50;;;18.00;100.00;95391.38;4989374;28;20012;-46
2023/06/21 00:05:33;;;;;;;;;;;21.70;59.60;;;17.96;100.00;95390.44;4994215;28;20331;-46
2023/06/21 00:07:59;;;;;;;;;;;21.70;59.70;;;17.96;100.00;95389.66;4988335;28;20001;-46
2023/06/21 00:10:28;;;;;;;;;;;21.70;59.70;;;17.93;100.00;95393.78;4994174;28;20367;-48
2023/06/21 00:12:54;;;;;;;;;;;21.70;59.70;;;17.93;100.00;95393.78;4984312;28;19964;-47
2023/06/21 00:15:21;;;;;;;;;;;21.60;59.70;;;17.90;100.00;95396.31;4993709;28;19911;-47
2023/06/21 00:17:47;;;;;;;;;;;21.60;59.70;;;17.88;100.00;95402.00;4991119;28;19917;-50
2023/06/21 00:20:13;;;;;;;;;;;21.60;59.80;;;17.86;100.00;95404.19;4983470;28;20001;-47
2023/06/21 00:22:40;;;;;;;;;;;21.60;59.90;;;17.85;100.00;95407.22;4993586;28;19944;-49
2023/06/21 00:25:08;;;;;;;;;;;21.60;59.90;;;17.84;100.00;95419.91;4990120;28;19914;-51
2023/06/21 00:27:35;;;;;;;;;;;21.60;60.00;;;17.84;100.00;95417.22;4993600;28;19910;-48
2023/06/21 00:30:01;;;;;;;;;;;21.50;60.00;;;17.83;100.00;95423.72;4990038;28;19913;-53
2023/06/21 00:32:27;;;;;;;;;;;21.50;60.00;;;17.78;100.00;95421.16;4979512;28;20004;-47
2023/06/21 00:34:53;;;;;;;;;;;21.50;60.10;;;17.79;100.00;95426.22;4993723;28;20009;-47
2023/06/21 00:37:19;;;;;;;;;;;21.50;60.10;;;17.78;100.00;95434.63;4981277;28;19913;-46
2023/06/21 00:39:44;;;;;;;;;;;21.50;60.20;;;17.74;100.00;95437.13;4993520;28;20287;-47
2023/06/21 00:42:13;;;;;;;;;;;21.50;60.30;;;17.71;100.00;95434.28;4977934;28;19937;-52
2023/06/21 00:44:39;;;;;;;;;;;21.40;60.30;;;17.68;100.00;95435.69;5008227;28;19917;-48
2023/06/21 00:47:05;;;;;;;;;;;21.40;60.30;;;17.68;100.00;95445.66;4993290;28;19916;-49
2023/06/21 00:49:31;;;;;;;;;;;21.40;60.40;;;17.66;100.00;95445.97;4986588;28;20402;-49
2023/06/21 00:51:57;;;;;;;;;;;21.40;60.50;;;17.64;100.00;95450.88;4993156;28;19917;-47
2023/06/21 00:54:31;;;;;;;;;;;21.40;60.50;;;17.65;100.00;95449.78;4985883;28;20292;-48
2023/06/21 00:56:57;;;;;;;;;;;21.40;60.60;;;17.64;100.00;95453.56;4991365;28;19909;-49
2023/06/21 00:59:27;;;;;;;;;;;21.40;61.50;;;17.65;100.00;95468.63;4993290;28;19913;-50
2023/06/21 01:01:58;;;;;;;;;;;21.30;60.70;;;17.62;100.00;95460.38;4978394;28;20362;-52
2023/06/21 01:04:27;;;;;;;;;;;21.40;60.80;;;17.58;100.00;95471.00;4993335;28;19936;-47
2023/06/21 01:07:12;;;;;;;;;;;21.30;61.60;;;17.58;100.00;95468.31;4987696;28;19913;-48
2023/06/21 01:10:29;;;;;;;;;;;21.30;60.90;;;17.53;100.00;95468.44;5006238;28;19917;-51
2023/06/21 01:14:01;;;;;;;;;;;21.30;60.90;;;17.52;100.00;95477.63;4983760;28;19909;-50
2023/06/21 01:16:45;;;;;;;;;;;21.30;61.00;;;17.50;100.00;95483.31;4985981;28;19909;-47
2023/06/21 01:19:53;;;;;;;;;;;21.30;61.20;;;17.45;100.00;95469.97;4980187;28;20319;-48
2023/06/21 01:22:24;;;;;;;;;;;21.30;61.30;;;17.46;100.00;95474.25;4992488;28;19909;-48
2023/06/21 01:25:14;;;;;;;;;;;21.20;61.30;;;17.45;100.00;95469.97;4989697;28;19920;-47
2023/06/21 01:28:06;;;;;;;;;;;21.30;61.40;;;17.46;100.00;95478.88;4992718;28;20008;-47
2023/06/21 01:30:34;;;;;;;;;;;21.20;61.40;;;17.46;100.00;95476.16;4985154;28;20376;-49
2023/06/21 01:33:05;;;;;;;;;;;21.30;61.50;;;17.45;100.00;95479.94;4982394;28;19921;-46
2023/06/21 01:35:31;;;;;;;;;;;21.30;61.50;;;17.48;100.00;95487.41;5007306;28;19913;-48
2023/06/21 01:37:58;;;;;;;;;;;21.30;61.60;;;17.48;100.00;95488.19;4970997;28;19954;-49
2023/06/21 01:40:24;;;;;;;;;;;21.20;61.50;;;17.50;100.00;95496.75;5004342;28;19910;-47
2023/06/21 01:42:50;;;;;;;;;;;21.30;61.60;;;17.54;100.00;95507.72;4980363;28;19909;-46
2023/06/21 01:45:16;;;;;;;;;;;21.30;61.70;;;17.56;100.00;95509.00;4992581;28;19913;-46
2023/06/21 01:47:45;;;;;;;;;;;21.40;61.80;;;17.60;100.00;95501.06;4990736;28;19932;-50
2023/06/21 01:50:13;;;;;;;;;;;21.40;62.00;;;17.61;100.00;95502.66;4987866;28;19917;-46
2023/06/21 01:52:41;;;;;;;;;;;21.40;61.90;;;17.64;100.00;95499.34;5007674;28;19992;-48
2023/06/21 01:55:10;;;;;;;;;;;21.40;61.90;;;17.66;100.00;95510.59;4978333;28;20609;-46
2023/06/21 01:57:36;;;;;;;;;;;21.40;61.90;;;17.67;100.00;95506.81;4972181;28;20368;-49
2023/06/21 02:00:40;;;;;;;;;;;21.50;62.00;;;17.70;100.00;95508.88;4971361;28;20387;-48
2023/06/21 02:03:06;;;;;;;;;;;21.50;62.00;;;17.72;100.00;95505.88;4987411;28;19909;-49
2023/06/21 02:05:34;;;;;;;;;;;21.50;62.00;;;17.74;100.00;95509.06;5007485;28;19964;-49
2023/06/21 02:08:04;;;;;;;;;;;21.60;62.10;;;17.74;100.00;95517.16;5006346;28;19913;-51
2023/06/21 02:10:30;;;;;;;;;;;21.50;62.10;;;17.76;100.00;95514.91;4992547;28;20395;-47
2023/06/21 02:12:56;;;;;;;;;;;21.60;62.20;;;17.79;100.00;95525.91;4997162;28;19964;-46
2023/06/21 02:15:23;;;;;;;;;;;21.60;62.20;;;17.81;100.00;95525.59;4992457;28;20396;-47
2023/06/21 02:17:50;;;;;;;;;;;21.60;62.20;;;17.79;100.00;95533.97;4990506;28;20480;-46
2023/06/21 02:20:19;;;;;;;;;;;21.60;62.20;;;17.83;100.00;95527.97;4981416;28;20001;-46
2023/06/21 02:22:46;;;;;;;;;;;21.60;62.30;;;17.86;100.00;95530.03;4992053;28;19916;-47
2023/06/21 02:25:15;;;;;;;;;;;21.60;62.30;;;17.85;100.00;95536.53;4985679;28;19913;-48
2023/06/21 02:27:41;;;;;;;;;;;21.60;62.30;;;17.83;100.00;95541.44;4988265;28;20356;-46
2023/06/21 02:30:08;;;;;;;;;;;21.60;62.40;;;17.80;100.00;95540.19;4986162;28;19913;-46
2023/06/21 02:32:34;;;;;;;;;;;21.70;63.10;;;17.80;100.00;95542.88;4987232;28;19922;-48
2023/06/21 02:35:00;;;;;;;;;;;21.70;62.30;;;17.78;100.00;95542.38;4995916;28;19936;-47
2023/06/21 02:37:28;;;;;;;;;;;21.60;62.30;;;17.77;100.00;95543.50;4983853;28;20008;-47
2023/06/21 02:39:57;;;;;;;;;;;21.60;62.30;;;17.75;100.00;95540.28;4995666;28;19909;-47
2023/06/21 02:42:29;;;;;;;;;;;21.60;62.40;;;17.75;100.00;95532.19;4975684;28;19909;-48
2023/06/21 02:44:55;;;;;;;;;;;21.60;62.40;;;17.75;100.00;95546.47;4988290;28;19913;-46
2023/06/21 02:47:21;;;;;;;;;;;21.60;62.50;;;17.77;100.00;95555.06;4995533;28;19955;-46
2023/06/21 02:49:46;;;;;;;;;;;21.60;62.60;;;17.77;100.00;95546.19;4990235;28;19909;-49
2023/06/21 02:52:14;;;;;;;;;;;21.60;62.60;;;17.73;100.00;95553.25;4995462;28;19914;-47
2023/06/21 02:54:39;;;;;;;;;;;21.60;62.60;;;17.72;100.00;95555.16;4987232;28;19917;-52
2023/06/21 02:57:06;;;;;;;;;;;21.60;62.60;;;17.69;100.00;95552.28;4982299;28;20277;-46
2023/06/21 02:59:31;;;;;;;;;;;21.60;62.60;;;17.69;100.00;95555.00;4995539;28;19941;-46
2023/06/21 03:01:57;;;;;;;;;;;21.50;62.60;;;17.69;100.00;95553.09;4981939;28;20011;-47
2023/06/21 03:04:23;;;;;;;;;;;21.60;62.70;;;17.69;100.00;95555.78;4995328;28;19917;-46
2023/06/21 03:06:48;;;;;;;;;;;21.50;62.70;;;17.67;100.00;95555.28;4991139;28;19910;-50
2023/06/21 03:09:14;;;;;;;;;;;21.50;62.70;;;17.66;100.00;95561.00;4995226;28;19916;-47
2023/06/21 03:11:40;;;;;;;;;;;21.60;62.90;;;17.67;100.00;95563.38;4994943;28;19952;-50
2023/06/21 03:14:06;;;;;;;;;;;21.50;62.80;;;17.64;100.00;95566.69;4986652;28;20368;-48
2023/06/21 03:16:32;;;;;;;;;;;21.50;62.90;;;17.62;100.00;95560.81;4994806;28;20133;-47
2023/06/21 03:18:57;;;;;;;;;;;21.50;62.90;;;17.59;100.00;95572.22;4984682;28;19972;-46
2023/06/21 03:21:23;;;;;;;;;;;21.50;63.00;;;17.61;100.00;95567.28;4993340;28;19909;-47
2023/06/21 03:23:49;;;;;;;;;;;21.50;63.00;;;17.63;100.00;95575.09;4992892;28;19910;-47
2023/06/21 03:26:15;;;;;;;;;;;21.50;63.00;;;17.62;100.00;95576.97;4987771;28;20467;-48
2023/06/21 03:28:42;;;;;;;;;;;21.50;63.10;;;17.64;100.00;95582.03;4994848;28;20012;-46
2023/06/21 03:31:08;;;;;;;;;;;21.50;63.20;;;17.63;100.00;95602.81;4986907;28;19913;-46
2023/06/21 03:33:33;;;;;;;;;;;21.50;63.20;;;17.65;100.00;95597.91;4994630;28;19924;-47
2023/06/21 03:35:59;;;;;;;;;;;21.50;63.20;;;17.69;100.00;95595.41;5005977;28;20262;-46
2023/06/21 03:38:25;;;;;;;;;;;21.50;64.00;;;17.70;100.00;95602.34;4987033;28;19913;-46
2023/06/21 03:40:51;;;;;;;;;;;21.50;63.20;;;17.68;100.00;95597.28;4987896;28;19909;-47
2023/06/21 03:43:16;;;;;;;;;;;21.60;63.30;;;17.69;100.00;95606.97;4985036;28;19909;-46
2023/06/21 03:45:43;;;;;;;;;;;21.60;63.30;;;17.72;100.00;95613.63;4994436;28;20439;-46
2023/06/21 03:48:09;;;;;;;;;;;21.60;63.30;;;17.74;100.00;95623.00;4986273;28;19914;-47
2023/06/21 03:50:34;;;;;;;;;;;21.60;63.40;;;17.78;100.00;95618.59;5007919;28;20018;-48
2023/06/21 03:53:00;;;;;;;;;;;21.70;63.40;;;17.83;100.00;95624.97;4994331;28;19909;-46
2023/06/21 03:55:26;;;;;;;;;;;21.80;63.40;;;17.88;100.00;95630.22;4980064;28;19917;-47
2023/06/21 03:57:52;;;;;;;;;;;21.80;64.20;;;17.93;100.00;95630.88;4985687;28;20419;-48
2023/06/21 04:00:18;;;;;;;;;;;21.90;63.40;;;17.98;100.00;95643.41;4988079;28;19910;-47
2023/06/21 04:02:44;;;;;;;;;;;21.90;63.30;;;18.02;100.00;95649.81;4986365;28;19909;-46
2023/06/21 04:05:10;;;;;;;;;;;22.00;63.30;;;18.07;100.00;95643.47;4994109;28;19920;-47
2023/06/21 04:07:38;;;;;;;;;;;22.10;63.30;;;18.12;100.00;95651.44;5004401;28;20280;-47
2023/06/21 04:10:05;;;;;;;;;;;22.20;63.20;;;18.15;100.00;95648.91;4994235;28;20300;-47
2023/06/21 04:12:31;;;;;;;;;;;22.20;63.20;;;18.23;100.00;95652.72;4984843;28;20055;-47
2023/06/21 04:15:00;;;;;;;;;;;22.30;63.20;;;18.30;100.00;95657.66;4993589;28;19972;-46
2023/06/21 04:17:27;;;;;;;;;;;22.40;63.10;;;18.39;100.00;95664.69;4993876;28;19964;-47
2023/06/21 04:19:55;;;;;;;;;;;22.50;63.00;;;18.46;100.00;95659.66;4981176;28;20300;-46
2023/06/21 04:22:24;;;;;;;;;;;22.60;63.10;;;18.53;100.00;95667.28;4993717;28;20011;-47
2023/06/21 04:24:51;;;;;;;;;;;22.70;63.00;;;18.60;100.00;95662.22;4990237;28;19913;-51
2023/06/21 04:27:17;;;;;;;;;;;22.80;63.00;;;18.69;100.00;95671.13;4987980;28;19956;-46
2023/06/21 04:29:43;;;;;;;;;;;22.90;62.90;;;18.78;100.00;95676.56;4993571;28;20004;-50
2023/06/21 04:32:09;;;;;;;;;;;23.00;62.90;;;18.84;100.00;95674.53;4987325;28;19936;-48
2023/06/21 04:34:36;;;;;;;;;;;23.00;62.80;;;18.97;100.00;95672.81;4993637;28;20295;-47
2023/06/21 04:37:05;;;;;;;;;;;23.20;62.80;;;19.08;100.00;95668.66;4982117;28;19909;-47
2023/06/21 04:39:32;;;;;;;;;;;23.20;62.70;;;19.15;100.00;95667.09;5008376;28;19944;-48
2023/06/21 04:41:58;;;;;;;;;;;23.40;63.50;;;19.24;100.00;95672.50;4978082;28;19910;-46
2023/06/21 04:44:27;;;;;;;;;;;23.50;62.60;;;19.38;100.00;95675.84;4993525;28;20327;-48
2023/06/21 04:46:57;;;;;;;;;;;23.60;63.30;;;19.52;100.00;95681.06;4993286;28;20304;-48
2023/06/21 04:49:26;;;;;;;;;;;23.70;62.40;;;19.68;100.00;95686.00;4987829;28;19933;-53
2023/06/21 04:52:00;;;;;;;;;;;23.90;62.30;;;19.79;100.00;95685.34;4993225;28;20399;-49
2023/06/21 04:54:28;;;;;;;;;;;24.10;62.20;;;19.91;100.00;95689.31;4982282;28;19916;-49
2023/06/21 04:56:54;;;;;;;;;;;24.30;62.10;;;20.03;100.00;95690.25;4968123;28;19916;-49
2023/06/21 04:59:20;;;;;;;;;;;24.50;62.00;;;20.29;100.00;95694.78;4993095;28;19916;-51
2023/06/21 05:01:46;;;;;;;;;;;24.70;61.80;;;20.56;100.00;95682.78;4974187;28;20357;-47
2023/06/21 05:04:11;;;;;;;;;;;25.00;61.60;;;20.73;100.00;95682.66;4985285;28;19968;-49
2023/06/21 05:06:38;;;;;;;;;;;25.20;61.50;;;20.82;100.00;95685.34;4970973;28;20387;-47
2023/06/21 05:09:04;;;;;;;;;;;25.40;61.30;;;21.03;100.00;95677.25;4973251;28;20368;-49
2023/06/21 05:11:29;;;;;;;;;;;25.60;61.10;;;21.24;100.00;95683.44;4973355;28;19910;-48
2023/06/21 05:13:55;;;;;;;;;;;25.90;61.00;;;21.48;100.00;95690.16;4972606;28;19916;-47
2023/06/21 05:16:21;;;;;;;;;;;26.10;60.70;;;21.70;100.00;95695.22;4971377;28;20381;-47
2023/06/21 05:18:47;;;;;;;;;;;26.40;60.70;;;21.69;100.00;95690.94;4972719;28;20373;-48
2023/06/21 05:21:12;;;;;;;;;;;26.60;60.30;;;21.85;100.00;95699.25;4973445;28;19913;-54
2023/06/21 05:23:38;;;;;;;;;;;26.80;60.00;;;22.03;100.00;95705.28;4972515;28;20368;-54
2023/06/21 05:26:04;;;;;;;;;;;26.90;60.70;;;22.14;100.00;95698.31;4971868;28;19921;-54
2023/06/21 05:28:30;;;;;;;;;;;27.20;59.90;;;22.37;100.00;95701.41;4972567;28;19910;-51
2023/06/21 05:30:56;;;;;;;;;;;27.30;59.80;;;22.54;100.00;95707.78;4969269;28;19952;-48
2023/06/21 05:33:21;;;;;;;;;;;27.60;59.70;;;22.63;100.00;95722.06;4971612;28;20452;-48
2023/06/21 05:35:47;;;;;;;;;;;27.70;59.50;;;22.79;100.00;95714.03;4972446;28;19910;-53
2023/06/21 05:38:13;;;;;;;;;;;27.80;59.30;;;22.84;100.00;95719.22;4964023;28;19909;-48
2023/06/21 05:40:38;;;;;;;;;;;27.90;59.20;;;22.94;100.00;95718.81;4971596;28;19910;-50
2023/06/21 05:43:05;;;;;;;;;;;28.10;59.20;;;22.99;100.00;95715.84;4968281;28;19918;-49
2023/06/21 05:45:31;;;;;;;;;;;28.20;59.20;;;23.11;100.00;95716.97;4983672;28;19939;-48
2023/06/21 05:47:58;;;;;;;;;;;28.30;59.10;;;23.19;100.00;95713.31;4977813;28;20284;-49
2023/06/21 05:50:24;;;;;;;;;;;28.40;59.00;;;23.28;98.49;95716.72;4986975;28;19917;-49
2023/06/21 05:52:50;;;;;;;;;;;28.50;58.90;;;23.40;97.18;95719.41;4992144;28;20368;-48
2023/06/21 05:55:15;;;;;;;;;;;28.50;58.70;;;23.44;96.55;95725.75;4983797;28;19910;-47
2023/06/21 05:57:41;;;;;;;;;;;28.60;58.70;;;23.50;96.13;95729.81;4971038;28;19948;-47
2023/06/21 06:00:09;;;;;;;;;;;28.60;58.60;;;23.56;95.95;95735.78;4987078;28;19924;-54
2023/06/21 06:02:35;;;;;;;;;;;28.70;58.50;;;23.54;90.13;95736.16;4984158;28;20003;-55
2023/06/21 06:05:01;;;;;;;;;;;28.70;58.40;;;23.41;85.56;95740.03;4992538;28;19914;-54
2023/06/21 06:07:27;;;;;;;;;;;28.70;58.20;;;23.45;85.60;95732.75;4991486;28;19909;-50
2023/06/21 06:09:53;;;;;;;;;;;28.70;58.10;;;23.34;83.69;95728.94;4995653;28;19916;-50
2023/06/21 06:12:21;;;;;;;;;;;28.80;58.10;;;23.44;85.38;95733.91;4990431;28;19956;-51
2023/06/21 06:14:47;;;;;;;;;;;28.90;58.10;;;23.54;86.33;95736.16;4994091;28;20000;-48
2023/06/21 06:17:14;;;;;;;;;;;28.90;58.00;;;23.60;85.37;95728.53;4995996;28;19914;-50
2023/06/21 06:19:39;;;;;;;;;;;29.00;58.00;;;23.69;87.40;95725.69;4984760;28;19945;-48
2023/06/21 06:22:05;;;;;;;;;;;29.10;58.00;;;23.82;86.58;95723.72;4995953;28;19944;-52
2023/06/21 06:24:31;;;;;;;;;;;29.20;58.00;;;23.95;87.76;95709.75;4993017;28;19914;-48
2023/06/21 06:26:58;;;;;;;;;;;29.30;57.90;;;23.99;85.69;95704.38;4986402;28;19913;-48
2023/06/21 06:29:24;;;;;;;;;;;29.40;57.90;;;24.11;86.69;95701.59;4994396;28;20008;-51
2023/06/21 06:31:51;;;;;;;;;;;29.60;57.90;;;24.29;82.36;95693.09;4981867;28;20367;-48
2023/06/21 06:34:17;;;;;;;;;;;29.80;57.90;;;24.36;75.67;95677.75;4994408;28;20000;-49
2023/06/21 06:36:43;;;;;;;;;;;29.90;57.80;;;24.46;76.71;95681.91;4986820;28;19921;-48
2023/06/21 06:39:09;;;;;;;;;;;30.00;57.70;;;24.60;77.41;95678.75;5009547;28;19944;-49
2023/06/21 06:41:35;;;;;;;;;;;30.10;57.50;;;24.70;75.98;95673.56;4983337;28;19945;-49
2023/06/21 06:44:00;;;;;;;;;;;30.20;57.40;;;24.85;76.46;95665.72;4979862;28;20012;-47
2023/06/21 06:46:26;;;;;;;;;;;30.40;57.30;;;24.93;71.75;95645.66;4995811;28;19913;-47
2023/06/21 06:48:52;;;;;;;;;;;30.60;57.20;;;24.98;74.00;95631.78;4989924;28;19917;-47
2023/06/21 06:51:18;;;;;;;;;;;30.70;57.00;;;25.11;76.03;95627.78;4995760;28;19963;-47
2023/06/21 06:53:44;;;;;;;;;;;30.80;56.70;;;25.29;74.50;95621.94;4995378;28;19909;-54
2023/06/21 06:56:10;;;;;;;;;;;30.90;56.50;;;25.41;72.63;95621.78;4986829;28;19909;-51
2023/06/21 06:58:36;;;;;;;;;;;31.10;56.30;;;25.51;67.70;95621.22;4994228;28;19909;-51
2023/06/21 07:01:05;;;;;;;;;;;31.30;56.10;;;25.77;68.03;95617.81;4983828;28;19914;-48
2023/06/21 07:03:31;;;;;;;;;;;31.50;55.90;;;26.03;69.83;95613.63;4994173;28;19913;-47
2023/06/21 07:05:57;;;;;;;;;;;31.70;55.60;;;26.14;69.91;95628.25;4991515;28;20020;-50
2023/06/21 07:08:23;;;;;;;;;;;32.00;55.40;;;26.28;67.12;95641.34;4992757;28;20028;-50
2023/06/21 07:10:48;;;;;;;;;;;32.20;55.20;;;26.37;67.24;95652.03;4995246;28;19909;-54
2023/06/21 07:13:15;;;;;;;;;;;32.30;54.90;;;26.26;67.20;95673.69;4987603;28;19909;-52
2023/06/21 07:15:40;;;;;;;;;;;32.50;54.50;;;26.29;68.76;95692.88;4986099;28;20265;-52
2023/06/21 07:18:06;;;;;;;;;;;32.60;54.30;;;26.36;70.22;95705.09;4991903;28;19963;-51
2023/06/21 07:20:32;;;;;;;;;;;32.70;54.00;;;26.58;68.00;95715.25;4987147;28;19914;-50
2023/06/21 07:22:58;;;;;;;;;;;32.90;53.90;;;26.62;69.62;95721.56;4994905;28;20280;-49
2023/06/21 07:25:24;;;;;;;;;;;32.90;53.60;;;26.59;67.49;95735.94;4991564;28;19921;-50
2023/06/21 07:27:50;;;;;;;;;;;33.00;53.40;;;26.35;66.82;95756.16;4995155;28;19909;-51
2023/06/21 07:30:16;;;;;;;;;;;33.10;53.20;;;26.29;69.70;95779.44;4991031;28;20016;-50
2023/06/21 07:32:42;;;;;;;;;;;32.90;52.80;;;25.96;69.84;95805.31;4998129;28;19964;-51
2023/06/21 07:35:08;;;;;;;;;;;32.50;53.00;;;25.56;72.15;95839.09;4994968;28;19948;-50
2023/06/21 07:37:35;;;;;;;;;;;32.10;53.60;;;25.24;73.47;95870.25;4984143;28;20351;-49
2023/06/21 07:40:01;;;;;;;;;;;31.50;53.10;;;24.33;75.21;95895.41;4994726;28;19911;-51
2023/06/21 07:42:27;;;;;;;;;;;31.00;53.00;;;23.83;75.50;95907.53;4974301;28;19937;-52
2023/06/21 07:44:55;;;;;;;;;;;30.50;53.10;;;22.56;79.00;95945.19;4986826;28;19917;-56
2023/06/21 07:47:22;;;;;;;;;;;29.70;52.40;;;21.01;86.88;95966.50;4994496;28;19909;-48
2023/06/21 07:49:48;;;;;;;;;;;28.60;52.00;;;20.14;96.16;95927.84;4993411;28;19932;-54
2023/06/21 07:52:14;;;;;;;;;;;27.30;52.30;;;19.51;100.00;95925.31;4994326;28;20291;-49
2023/06/21 07:54:42;;;;;;;;;;;26.30;53.20;;;18.77;100.00;95907.06;4986682;28;19910;-47
2023/06/21 07:57:08;;;;;;;;;;;25.30;53.90;;;18.49;100.00;95879.41;4987971;28;20361;-45
2023/06/21 07:59:34;;;;;;;;;;;24.50;55.40;;;18.31;100.00;95862.28;4987287;28;19909;-45
2023/06/21 08:02:00;;;;;;;;;;;23.90;55.80;;;18.09;100.00;95855.00;4981985;28;19916;-45
2023/06/21 08:04:26;;;;;;;;;;;23.50;56.60;;;18.03;100.00;95829.25;4994259;28;19963;-46
2023/06/21 08:06:51;;;;;;;;;;;23.10;57.20;;;17.96;100.00;95818.91;4991400;28;19913;-46
2023/06/21 08:09:17;;;;;;;;;;;22.80;57.80;;;17.89;100.00;95804.25;4994206;28;20015;-47
2023/06/21 08:11:43;;;;;;;;;;;22.70;58.30;;;17.92;100.00;95803.66;4993978;28;19956;-46
2023/06/21 08:14:08;;;;;;;;;;;22.60;58.80;;;17.94;100.00;95799.53;4992919;28;19909;-47
2023/06/21 08:16:34;;;;;;;;;;;22.50;59.10;;;17.98;100.00;95792.44;4993776;28;20295;-54
2023/06/21 08:19:00;;;;;;;;;;;22.60;59.40;;;18.09;100.00;95793.00;4984039;28;19995;-47
2023/06/21 08:21:26;;;;;;;;;;;22.70;59.60;;;18.13;100.00;95783.19;4993036;28;20063;-48
2023/06/21 08:23:52;;;;;;;;;;;22.80;59.70;;;18.22;100.00;95785.94;4990875;28;19909;-50
2023/06/21 08:26:18;;;;;;;;;;;22.90;59.80;;;18.37;100.00;95784.75;4993169;28;19909;-52
2023/06/21 08:28:45;;;;;;;;;;;23.10;59.90;;;18.49;100.00;95798.47;4993243;28;19909;-49
2023/06/21 08:31:11;;;;;;;;;;;23.40;60.00;;;18.66;100.00;95795.06;4986743;28;20406;-47
2023/06/21 08:33:37;;;;;;;;;;;23.60;59.80;;;18.83;100.00;95797.06;4986479;28;19918;-50
2023/06/21 08:36:06;;;;;;;;;;;24.00;59.60;;;19.32;100.00;95798.63;4990476;28;19909;-47
2023/06/21 08:38:32;;;;;;;;;;;24.60;59.50;;;19.87;100.00;95787.28;5001534;28;19971;-47
2023/06/21 08:41:02;;;;;;;;;;;25.30;59.90;;;20.43;100.00;95805.47;4985779;28;19910;-47
2023/06/21 08:43:28;;;;;;;;;;;26.10;59.10;;;20.90;99.65;95808.22;4973074;28;20012;-49
2023/06/21 08:45:56;;;;;;;;;;;26.80;58.80;;;21.32;95.48;95806.44;4993430;28;20368;-47
2023/06/21 08:48:32;;;;;;;;;;;27.30;58.50;;;21.63;94.31;95808.03;4988141;28;20383;-47
2023/06/21 08:50:59;;;;;;;;;;;27.70;58.20;;;21.82;87.67;95815.69;4972996;28;19917;-47
2023/06/21 08:53:57;;;;;;;;;;;28.10;57.90;;;22.18;88.54;95810.47;4992813;28;19909;-50
2023/06/21 08:56:25;;;;;;;;;;;28.40;57.60;;;22.41;85.56;95815.53;4996260;28;19915;-47
2023/06/21 08:59:05;;;;;;;;;;;28.60;57.30;;;22.32;83.76;95812.91;4960956;28;20265;-47
2023/06/21 09:01:52;;;;;;;;;;;28.80;57.00;;;22.54;85.28;95817.16;4970599;28;20301;-49
2023/06/21 09:04:25;;;;;;;;;;;28.90;56.80;;;22.87;83.96;95819.00;4998010;28;20037;-50
2023/06/21 09:06:53;;;;;;;;;;;29.10;56.70;;;23.01;84.56;95827.66;4984165;28;20367;-47
2023/06/21 09:09:23;;;;;;;;;;;29.20;56.60;;;23.16;86.10;95826.22;4991828;28;19909;-48
2023/06/21 09:11:52;;;;;;;;;;;29.30;56.60;;;23.21;84.96;95830.63;4984449;28;19970;-51
2023/06/21 09:14:21;;;;;;;;;;;29.40;56.60;;;23.35;82.07;95830.28;4985021;28;20011;-51
2023/06/21 09:16:48;;;;;;;;;;;29.40;56.50;;;23.59;84.13;95837.63;4983746;28;20012;-50
2023/06/21 09:19:15;;;;;;;;;;;29.70;56.50;;;23.95;85.62;95834.09;4971848;28;19910;-48
2023/06/21 09:21:42;;;;;;;;;;;29.90;56.40;;;24.21;80.60;95833.66;4976754;28;19909;-49
2023/06/21 09:24:08;;;;;;;;;;;30.30;56.20;;;24.88;77.04;95842.88;5004631;28;20015;-49
2023/06/21 09:26:37;;;;;;;;;;;31.00;56.20;;;25.55;76.15;95834.78;4992749;28;20337;-51
2023/06/21 09:29:02;;;;;;;;;;;31.60;56.30;;;26.15;61.92;95839.22;5005821;28;20000;-49
2023/06/21 09:31:28;;;;;;;;;;;32.20;56.80;;;26.66;66.32;95841.81;4982366;28;19997;-48
2023/06/21 09:33:55;;;;;;;;;;;32.70;55.80;;;27.05;66.71;95847.19;4972566;28;19925;-53
2023/06/21 09:36:20;;;;;;;;;;;33.30;55.50;;;27.34;66.24;95849.25;4982825;28;19909;-50
2023/06/21 09:38:46;;;;;;;;;;;33.60;55.30;;;27.50;64.56;95854.59;4978388;28;20001;-49
2023/06/21 09:41:12;;;;;;;;;;;33.80;55.00;;;27.66;65.99;95859.91;4981902;28;19913;-49
2023/06/21 09:43:42;;;;;;;;;;;34.00;54.80;;;27.80;62.80;95862.91;4974179;28;19917;-53
2023/06/21 09:46:09;;;;;;;;;;;34.10;54.40;;;28.08;61.64;95865.25;4981992;28;19914;-51
2023/06/21 09:48:37;;;;;;;;;;;34.50;53.80;;;28.49;62.17;95868.13;4978271;28;19916;-56
2023/06/21 09:51:10;;;;;;;;;;;34.90;53.40;;;28.45;55.35;95870.00;4972579;28;20369;-51
2023/06/21 09:53:37;;;;;;;;;;;35.40;53.00;;;28.76;57.20;95871.53;4972556;28;19910;-52
2023/06/21 09:56:03;;;;;;;;;;;35.60;52.40;;;29.12;58.75;95866.47;4981901;28;20441;-54
2023/06/21 09:58:34;;;;;;;;;;;35.90;52.10;;;29.40;55.46;95879.63;4986491;28;19955;-54
2023/06/21 10:01:06;;;;;;;;;;;36.30;51.80;;;29.57;59.99;95871.94;4970847;28;19980;-53
2023/06/21 10:03:34;;;;;;;;;;;36.80;51.40;;;29.61;54.89;95875.50;4970937;28;19914;-52
2023/06/21 10:06:03;;;;;;;;;;;37.10;51.10;;;29.83;54.74;95876.44;4984364;28;19949;-49
2023/06/21 10:08:36;;;;;;;;;;;37.40;50.90;;;29.58;55.95;95874.28;4972940;28;19993;-56
2023/06/21 10:11:03;;;;;;;;;;;37.60;50.70;;;29.43;57.02;95873.41;4983855;28;19981;-56
2023/06/21 10:13:34;;;;;;;;;;;37.50;50.20;;;29.45;56.16;95878.50;4971879;28;19964;-51
2023/06/21 10:16:03;;;;;;;;;;;37.40;50.10;;;29.17;56.27;95881.78;4972977;28;19914;-54
2023/06/21 10:18:30;;;;;;;;;;;37.20;50.00;;;28.98;56.61;95880.00;4972388;28;19980;-53
2023/06/21 10:21:00;;;;;;;;;;;36.90;49.60;;;28.89;57.44;95874.03;4972912;28;19917;-49
2023/06/21 10:23:37;;;;;;;;;;;36.80;49.60;;;28.47;59.08;95875.91;4972702;28;20013;-50
2023/06/21 10:26:12;;;;;;;;;;;36.70;49.30;;;28.32;59.83;95874.91;4971999;28;19914;-50
2023/06/21 10:28:42;;;;;;;;;;;36.60;48.80;;;27.97;56.70;95861.56;4971703;28;19909;-51
2023/06/21 10:31:12;;;;;;;;;;;36.60;47.90;;;27.94;56.48;95862.28;4971804;28;19909;-55
2023/06/21 10:33:40;;;;;;;;;;;36.60;47.30;;;28.03;55.54;95862.81;4973168;28;20063;-55
2023/06/21 10:36:13;;;;;;;;;;;36.50;46.90;;;28.02;55.93;95860.47;4984490;28;19921;-51
2023/06/21 10:38:48;;;;;;;;;;;36.40;46.70;;;27.18;59.10;95854.09;4972893;28;19910;-49
2023/06/21 10:41:15;;;;;;;;;;;36.20;46.50;;;27.27;57.79;95859.31;4963071;28;19992;-48
2023/06/21 10:43:43;;;;;;;;;;;35.90;46.20;;;27.43;57.29;95863.47;4972574;28;20001;-48
2023/06/21 10:46:11;;;;;;;;;;;35.80;46.20;;;27.36;56.68;95855.16;4972652;28;20380;-51
2023/06/21 10:48:39;;;;;;;;;;;35.60;46.00;;;26.94;57.20;95838.78;4971682;28;19909;-48
2023/06/21 10:51:05;;;;;;;;;;;35.50;45.90;;;26.88;56.86;95849.22;4984321;28;20468;-49
2023/06/21 10:53:35;;;;;;;;;;;35.10;45.70;;;26.95;57.05;95845.84;4971835;28;19944;-51
2023/06/21 10:56:07;;;;;;;;;;;34.90;45.60;;;26.72;57.51;95829.44;4975276;28;19963;-51
2023/06/21 10:58:33;;;;;;;;;;;34.70;45.60;;;26.59;58.33;95828.81;4976169;28;19923;-50
2023/06/21 11:01:00;;;;;;;;;;;34.50;45.40;;;26.94;59.66;95836.06;4974611;28;20288;-47
2023/06/21 11:03:27;;;;;;;;;;;34.50;45.40;;;27.15;55.46;95841.94;4975641;28;19913;-50
2023/06/21 11:05:55;;;;;;;;;;;34.60;45.20;;;27.64;56.24;95841.13;4978303;28;19918;-52
2023/06/21 11:08:30;;;;;;;;;;;34.80;45.10;;;27.64;55.75;95826.66;4980568;28;20377;-51
2023/06/21 11:10:56;;;;;;;;;;;35.10;44.90;;;27.82;54.76;95829.66;4974828;28;19953;-51
2023/06/21 11:13:39;;;;;;;;;;;35.40;44.70;;;28.10;51.47;95829.25;4973064;28;19922;-53
2023/06/21 11:16:17;;;;;;;;;;;35.60;44.40;;;28.03;52.69;95821.75;4974763;28;19941;-53